Lake Bridgeport, Texas
Current Conditions -  °F | °C
As of 12:15 PM on Friday 21 Nov 2014 (Local Time) from KXBP Reporting Station
Overcast Overcast  
Wind Chill: 69°   Ceiling: 3200
Heat Index: 69°   Visibility: 10mi
Dew Point: 60°   Wind: 12mph
Humidity: 74%   Direction: 170°S
Pressure: 30.08"   Gusts: 18mph
Location:  33.1691°N, 97.8246°W
Report Text: KXBP 211815Z AUTO 17010G16KT 140V200 10SM SCT018 BKN032 OVC045 20/16 A3008 RMK AO2 T02040157
Loading
Personal Weather Stations






























Interactive Weather Map New forecast layout! Learn more

10-Day Weather Forecast

Advertisements
Track Severe Weather on mobile